sensor_id;sensor_type;location;lat;lon;timestamp;P1;durP1;ratioP1;P2;durP2;ratioP2
54897;SDS011;40800;52.704;6.398;2022-11-20T00:00:05;18.47;;;16.67;;
54897;SDS011;40800;52.704;6.398;2022-11-20T00:02:31;19.63;;;17.55;;
54897;SDS011;40800;52.704;6.398;2022-11-20T00:04:57;19.57;;;17.50;;
54897;SDS011;40800;52.704;6.398;2022-11-20T00:07:22;20.03;;;18.03;;
54897;SDS011;40800;52.704;6.398;2022-11-20T00:09:48;19.83;;;17.83;;
54897;SDS011;40800;52.704;6.398;2022-11-20T00:12:14;19.43;;;17.30;;
54897;SDS011;40800;52.704;6.398;2022-11-20T00:14:39;18.95;;;17.05;;
54897;SDS011;40800;52.704;6.398;2022-11-20T00:17:06;19.38;;;17.35;;
54897;SDS011;40800;52.704;6.398;2022-11-20T00:19:32;20.45;;;18.35;;
54897;SDS011;40800;52.704;6.398;2022-11-20T00:21:57;18.73;;;16.73;;
54897;SDS011;40800;52.704;6.398;2022-11-20T00:24:23;19.38;;;17.27;;
54897;SDS011;40800;52.704;6.398;2022-11-20T00:26:48;19.40;;;17.47;;
54897;SDS011;40800;52.704;6.398;2022-11-20T00:29:14;19.58;;;17.58;;
54897;SDS011;40800;52.704;6.398;2022-11-20T00:31:39;20.77;;;17.98;;
54897;SDS011;40800;52.704;6.398;2022-11-20T00:34:05;18.67;;;16.67;;
54897;SDS011;40800;52.704;6.398;2022-11-20T00:36:32;19.85;;;17.75;;
54897;SDS011;40800;52.704;6.398;2022-11-20T00:38:58;17.77;;;15.98;;
54897;SDS011;40800;52.704;6.398;2022-11-20T00:41:24;20.30;;;18.30;;
54897;SDS011;40800;52.704;6.398;2022-11-20T00:46:17;20.25;;;18.20;;
54897;SDS011;40800;52.704;6.398;2022-11-20T00:48:45;21.80;;;19.48;;
54897;SDS011;40800;52.704;6.398;2022-11-20T00:51:12;21.20;;;19.00;;
54897;SDS011;40800;52.704;6.398;2022-11-20T00:53:39;20.13;;;18.02;;
54897;SDS011;40800;52.704;6.398;2022-11-20T00:56:06;21.17;;;18.83;;
54897;SDS011;40800;52.704;6.398;2022-11-20T00:58:34;21.92;;;19.38;;
54897;SDS011;40800;52.704;6.398;2022-11-20T01:01:08;20.77;;;18.67;;
54897;SDS011;40800;52.704;6.398;2022-11-20T01:03:36;22.40;;;20.00;;
54897;SDS011;40800;52.704;6.398;2022-11-20T01:06:07;21.65;;;19.20;;
54897;SDS011;40800;52.704;6.398;2022-11-20T01:08:40;21.40;;;19.23;;
54897;SDS011;40800;52.704;6.398;2022-11-20T01:11:07;21.02;;;18.92;;
54897;SDS011;40800;52.704;6.398;2022-11-20T01:13:38;21.98;;;19.83;;
54897;SDS011;40800;52.704;6.398;2022-11-20T01:18:34;19.92;;;17.95;;
54897;SDS011;40800;52.704;6.398;2022-11-20T01:21:05;20.70;;;18.63;;
54897;SDS011;40800;52.704;6.398;2022-11-20T01:23:36;21.90;;;19.60;;
54897;SDS011;40800;52.704;6.398;2022-11-20T01:26:04;22.55;;;20.25;;
54897;SDS011;40800;52.704;6.398;2022-11-20T01:28:31;21.52;;;19.38;;
54897;SDS011;40800;52.704;6.398;2022-11-20T01:30:57;22.90;;;20.40;;
54897;SDS011;40800;52.704;6.398;2022-11-20T01:33:23;22.38;;;19.90;;
54897;SDS011;40800;52.704;6.398;2022-11-20T01:35:49;22.73;;;20.43;;
54897;SDS011;40800;52.704;6.398;2022-11-20T01:38:15;23.03;;;20.63;;
54897;SDS011;40800;52.704;6.398;2022-11-20T01:40:41;20.67;;;18.52;;
54897;SDS011;40800;52.704;6.398;2022-11-20T01:43:12;21.65;;;19.38;;
54897;SDS011;40800;52.704;6.398;2022-11-20T01:48:21;21.33;;;19.20;;
54897;SDS011;40800;52.704;6.398;2022-11-20T01:50:49;24.27;;;20.92;;
54897;SDS011;40800;52.704;6.398;2022-11-20T01:53:16;20.08;;;18.08;;
54897;SDS011;40800;52.704;6.398;2022-11-20T01:55:47;20.13;;;18.13;;
54897;SDS011;40800;52.704;6.398;2022-11-20T01:58:16;20.80;;;18.63;;
54897;SDS011;40800;52.704;6.398;2022-11-20T02:00:42;20.92;;;18.83;;
54897;SDS011;40800;52.704;6.398;2022-11-20T02:03:09;21.17;;;19.07;;
54897;SDS011;40800;52.704;6.398;2022-11-20T02:05:40;21.67;;;19.48;;
54897;SDS011;40800;52.704;6.398;2022-11-20T02:08:14;22.50;;;20.10;;
54897;SDS011;40800;52.704;6.398;2022-11-20T02:10:41;22.20;;;19.90;;
54897;SDS011;40800;52.704;6.398;2022-11-20T02:13:06;25.10;;;21.77;;
54897;SDS011;40800;52.704;6.398;2022-11-20T02:15:51;21.98;;;19.58;;
54897;SDS011;40800;52.704;6.398;2022-11-20T02:18:18;21.10;;;18.93;;
54897;SDS011;40800;52.704;6.398;2022-11-20T02:20:46;22.00;;;19.70;;
54897;SDS011;40800;52.704;6.398;2022-11-20T02:23:28;22.60;;;20.17;;
54897;SDS011;40800;52.704;6.398;2022-11-20T02:26:03;23.17;;;20.55;;
54897;SDS011;40800;52.704;6.398;2022-11-20T02:28:34;22.65;;;20.30;;
54897;SDS011;40800;52.704;6.398;2022-11-20T02:31:00;21.70;;;19.50;;
54897;SDS011;40800;52.704;6.398;2022-11-20T02:33:26;21.60;;;19.50;;
54897;SDS011;40800;52.704;6.398;2022-11-20T02:35:51;21.20;;;19.02;;
54897;SDS011;40800;52.704;6.398;2022-11-20T02:38:17;22.13;;;19.93;;
54897;SDS011;40800;52.704;6.398;2022-11-20T02:40:43;21.30;;;19.05;;
54897;SDS011;40800;52.704;6.398;2022-11-20T02:43:08;21.93;;;19.63;;
54897;SDS011;40800;52.704;6.398;2022-11-20T02:45:34;21.03;;;18.83;;
54897;SDS011;40800;52.704;6.398;2022-11-20T02:48:00;21.57;;;19.37;;
54897;SDS011;40800;52.704;6.398;2022-11-20T02:50:26;22.50;;;20.10;;
54897;SDS011;40800;52.704;6.398;2022-11-20T02:52:51;22.63;;;19.80;;
54897;SDS011;40800;52.704;6.398;2022-11-20T02:55:17;22.83;;;20.33;;
54897;SDS011;40800;52.704;6.398;2022-11-20T02:57:42;22.67;;;20.27;;
54897;SDS011;40800;52.704;6.398;2022-11-20T03:00:08;21.53;;;19.43;;
54897;SDS011;40800;52.704;6.398;2022-11-20T03:02:34;20.75;;;18.70;;
54897;SDS011;40800;52.704;6.398;2022-11-20T03:05:00;22.43;;;20.13;;
54897;SDS011;40800;52.704;6.398;2022-11-20T03:07:25;23.83;;;20.17;;
54897;SDS011;40800;52.704;6.398;2022-11-20T03:09:51;22.07;;;19.40;;
54897;SDS011;40800;52.704;6.398;2022-11-20T03:12:17;23.97;;;21.00;;
54897;SDS011;40800;52.704;6.398;2022-11-20T03:14:42;23.53;;;21.03;;
54897;SDS011;40800;52.704;6.398;2022-11-20T03:17:08;21.80;;;19.50;;
54897;SDS011;40800;52.704;6.398;2022-11-20T03:19:34;26.40;;;22.10;;
54897;SDS011;40800;52.704;6.398;2022-11-20T03:21:59;23.83;;;21.27;;
54897;SDS011;40800;52.704;6.398;2022-11-20T03:24:25;20.90;;;18.73;;
54897;SDS011;40800;52.704;6.398;2022-11-20T03:26:51;23.73;;;21.07;;
54897;SDS011;40800;52.704;6.398;2022-11-20T03:29:17;26.50;;;22.67;;
54897;SDS011;40800;52.704;6.398;2022-11-20T03:31:42;22.60;;;19.97;;
54897;SDS011;40800;52.704;6.398;2022-11-20T03:34:09;22.97;;;20.47;;
54897;SDS011;40800;52.704;6.398;2022-11-20T03:36:39;22.38;;;20.00;;
54897;SDS011;40800;52.704;6.398;2022-11-20T03:39:07;22.02;;;19.80;;
54897;SDS011;40800;52.704;6.398;2022-11-20T03:41:35;23.88;;;21.38;;
54897;SDS011;40800;52.704;6.398;2022-11-20T03:44:03;24.65;;;22.05;;
54897;SDS011;40800;52.704;6.398;2022-11-20T03:46:30;23.20;;;20.75;;
54897;SDS011;40800;52.704;6.398;2022-11-20T03:48:56;25.23;;;22.55;;
54897;SDS011;40800;52.704;6.398;2022-11-20T03:51:23;24.47;;;21.87;;
54897;SDS011;40800;52.704;6.398;2022-11-20T03:53:49;23.38;;;20.98;;
54897;SDS011;40800;52.704;6.398;2022-11-20T03:56:17;23.27;;;20.77;;
54897;SDS011;40800;52.704;6.398;2022-11-20T03:58:44;24.20;;;21.70;;
54897;SDS011;40800;52.704;6.398;2022-11-20T04:01:11;25.87;;;23.10;;
54897;SDS011;40800;52.704;6.398;2022-11-20T04:03:47;25.95;;;23.15;;
54897;SDS011;40800;52.704;6.398;2022-11-20T04:06:15;26.95;;;24.02;;
54897;SDS011;40800;52.704;6.398;2022-11-20T04:08:48;24.55;;;22.02;;
54897;SDS011;40800;52.704;6.398;2022-11-20T04:11:15;24.58;;;22.08;;
54897;SDS011;40800;52.704;6.398;2022-11-20T04:13:49;24.13;;;21.63;;
54897;SDS011;40800;52.704;6.398;2022-11-20T04:16:19;24.20;;;21.65;;
54897;SDS011;40800;52.704;6.398;2022-11-20T04:18:46;24.20;;;21.60;;
54897;SDS011;40800;52.704;6.398;2022-11-20T04:21:12;23.03;;;20.83;;
54897;SDS011;40800;52.704;6.398;2022-11-20T04:23:37;24.03;;;21.50;;
54897;SDS011;40800;52.704;6.398;2022-11-20T04:26:04;25.27;;;22.67;;
54897;SDS011;40800;52.704;6.398;2022-11-20T04:28:31;24.85;;;22.25;;
54897;SDS011;40800;52.704;6.398;2022-11-20T04:31:01;24.00;;;21.40;;
54897;SDS011;40800;52.704;6.398;2022-11-20T04:33:28;22.90;;;20.55;;
54897;SDS011;40800;52.704;6.398;2022-11-20T04:35:54;24.80;;;21.93;;
54897;SDS011;40800;52.704;6.398;2022-11-20T04:38:19;23.85;;;21.45;;
54897;SDS011;40800;52.704;6.398;2022-11-20T04:40:45;25.03;;;22.30;;
54897;SDS011;40800;52.704;6.398;2022-11-20T04:43:10;21.42;;;19.23;;
54897;SDS011;40800;52.704;6.398;2022-11-20T04:45:36;24.00;;;21.40;;
54897;SDS011;40800;52.704;6.398;2022-11-20T04:48:01;26.13;;;23.33;;
54897;SDS011;40800;52.704;6.398;2022-11-20T04:50:27;24.33;;;21.80;;
54897;SDS011;40800;52.704;6.398;2022-11-20T04:52:52;23.63;;;21.13;;
54897;SDS011;40800;52.704;6.398;2022-11-20T04:55:18;24.30;;;21.87;;
54897;SDS011;40800;52.704;6.398;2022-11-20T04:57:44;23.92;;;21.40;;
54897;SDS011;40800;52.704;6.398;2022-11-20T05:00:09;23.03;;;20.73;;
54897;SDS011;40800;52.704;6.398;2022-11-20T05:02:35;23.38;;;20.90;;
54897;SDS011;40800;52.704;6.398;2022-11-20T05:05:01;24.07;;;21.57;;
54897;SDS011;40800;52.704;6.398;2022-11-20T05:07:26;22.87;;;20.57;;
54897;SDS011;40800;52.704;6.398;2022-11-20T05:09:52;23.73;;;21.33;;
54897;SDS011;40800;52.704;6.398;2022-11-20T05:12:17;23.43;;;21.03;;
54897;SDS011;40800;52.704;6.398;2022-11-20T05:14:43;25.13;;;22.40;;
54897;SDS011;40800;52.704;6.398;2022-11-20T05:17:12;23.63;;;21.23;;
54897;SDS011;40800;52.704;6.398;2022-11-20T05:19:37;24.20;;;21.58;;
54897;SDS011;40800;52.704;6.398;2022-11-20T05:22:04;23.93;;;21.33;;
54897;SDS011;40800;52.704;6.398;2022-11-20T05:26:55;23.20;;;20.70;;
54897;SDS011;40800;52.704;6.398;2022-11-20T05:29:21;22.70;;;20.37;;
54897;SDS011;40800;52.704;6.398;2022-11-20T05:31:46;24.47;;;21.27;;
54897;SDS011;40800;52.704;6.398;2022-11-20T05:34:12;24.55;;;21.92;;
54897;SDS011;40800;52.704;6.398;2022-11-20T05:36:37;22.27;;;20.07;;
54897;SDS011;40800;52.704;6.398;2022-11-20T05:39:03;23.98;;;21.58;;
54897;SDS011;40800;52.704;6.398;2022-11-20T05:41:28;23.30;;;20.90;;
54897;SDS011;40800;52.704;6.398;2022-11-20T05:43:55;24.43;;;21.93;;
54897;SDS011;40800;52.704;6.398;2022-11-20T05:48:47;24.48;;;21.88;;
54897;SDS011;40800;52.704;6.398;2022-11-20T05:51:14;23.25;;;20.88;;
54897;SDS011;40800;52.704;6.398;2022-11-20T05:53:42;23.08;;;20.67;;
54897;SDS011;40800;52.704;6.398;2022-11-20T05:56:09;24.47;;;21.87;;
54897;SDS011;40800;52.704;6.398;2022-11-20T05:58:38;27.83;;;24.83;;
54897;SDS011;40800;52.704;6.398;2022-11-20T06:01:05;28.03;;;25.03;;
54897;SDS011;40800;52.704;6.398;2022-11-20T06:03:36;27.67;;;24.73;;
54897;SDS011;40800;52.704;6.398;2022-11-20T06:06:02;27.35;;;24.23;;
54897;SDS011;40800;52.704;6.398;2022-11-20T06:08:29;25.70;;;22.95;;
54897;SDS011;40800;52.704;6.398;2022-11-20T06:10:54;26.77;;;23.98;;
54897;SDS011;40800;52.704;6.398;2022-11-20T06:13:20;28.23;;;25.23;;
54897;SDS011;40800;52.704;6.398;2022-11-20T06:15:49;27.33;;;24.53;;
54897;SDS011;40800;52.704;6.398;2022-11-20T06:18:16;29.67;;;26.00;;
54897;SDS011;40800;52.704;6.398;2022-11-20T06:20:41;28.63;;;25.73;;
54897;SDS011;40800;52.704;6.398;2022-11-20T06:23:07;32.83;;;27.60;;
54897;SDS011;40800;52.704;6.398;2022-11-20T06:25:32;29.27;;;26.20;;
54897;SDS011;40800;52.704;6.398;2022-11-20T06:28:01;26.85;;;24.10;;
54897;SDS011;40800;52.704;6.398;2022-11-20T06:30:27;27.37;;;24.40;;
54897;SDS011;40800;52.704;6.398;2022-11-20T06:32:52;27.70;;;24.87;;
54897;SDS011;40800;52.704;6.398;2022-11-20T06:35:18;31.30;;;28.08;;
54897;SDS011;40800;52.704;6.398;2022-11-20T06:37:43;32.70;;;27.43;;
54897;SDS011;40800;52.704;6.398;2022-11-20T06:40:09;29.37;;;26.37;;
54897;SDS011;40800;52.704;6.398;2022-11-20T06:42:35;30.33;;;27.07;;
54897;SDS011;40800;52.704;6.398;2022-11-20T06:45:01;31.42;;;27.67;;
54897;SDS011;40800;52.704;6.398;2022-11-20T06:47:26;31.17;;;27.87;;
54897;SDS011;40800;52.704;6.398;2022-11-20T06:49:52;30.95;;;27.67;;
54897;SDS011;40800;52.704;6.398;2022-11-20T06:52:17;30.67;;;27.42;;
54897;SDS011;40800;52.704;6.398;2022-11-20T06:54:43;30.15;;;26.95;;
54897;SDS011;40800;52.704;6.398;2022-11-20T06:57:08;30.63;;;27.08;;
54897;SDS011;40800;52.704;6.398;2022-11-20T06:59:34;32.77;;;26.67;;
54897;SDS011;40800;52.704;6.398;2022-11-20T07:01:59;38.53;;;26.50;;
54897;SDS011;40800;52.704;6.398;2022-11-20T07:04:25;31.23;;;27.92;;
54897;SDS011;40800;52.704;6.398;2022-11-20T07:06:50;29.92;;;26.30;;
54897;SDS011;40800;52.704;6.398;2022-11-20T07:09:16;30.53;;;27.23;;
54897;SDS011;40800;52.704;6.398;2022-11-20T07:11:41;29.23;;;25.70;;
54897;SDS011;40800;52.704;6.398;2022-11-20T07:14:07;30.25;;;25.52;;
54897;SDS011;40800;52.704;6.398;2022-11-20T07:16:32;28.67;;;25.63;;
54897;SDS011;40800;52.704;6.398;2022-11-20T07:18:58;30.17;;;26.85;;
54897;SDS011;40800;52.704;6.398;2022-11-20T07:21:23;27.37;;;24.47;;
54897;SDS011;40800;52.704;6.398;2022-11-20T07:23:49;28.50;;;24.93;;
54897;SDS011;40800;52.704;6.398;2022-11-20T07:26:14;27.67;;;24.83;;
54897;SDS011;40800;52.704;6.398;2022-11-20T07:28:40;29.92;;;25.73;;
54897;SDS011;40800;52.704;6.398;2022-11-20T07:31:08;28.95;;;25.95;;
54897;SDS011;40800;52.704;6.398;2022-11-20T07:33:34;28.80;;;25.63;;
54897;SDS011;40800;52.704;6.398;2022-11-20T07:35:59;27.67;;;24.90;;
54897;SDS011;40800;52.704;6.398;2022-11-20T07:38:25;29.00;;;25.87;;
54897;SDS011;40800;52.704;6.398;2022-11-20T07:40:54;27.27;;;24.45;;
54897;SDS011;40800;52.704;6.398;2022-11-20T07:43:21;31.13;;;24.20;;
54897;SDS011;40800;52.704;6.398;2022-11-20T07:45:46;30.17;;;25.77;;
54897;SDS011;40800;52.704;6.398;2022-11-20T07:48:12;27.73;;;23.83;;
54897;SDS011;40800;52.704;6.398;2022-11-20T07:50:37;29.85;;;25.45;;
54897;SDS011;40800;52.704;6.398;2022-11-20T07:53:06;33.15;;;24.00;;
54897;SDS011;40800;52.704;6.398;2022-11-20T07:55:32;27.60;;;24.65;;
54897;SDS011;40800;52.704;6.398;2022-11-20T07:57:57;28.57;;;24.67;;
54897;SDS011;40800;52.704;6.398;2022-11-20T08:00:23;30.73;;;24.27;;
54897;SDS011;40800;52.704;6.398;2022-11-20T08:02:50;28.02;;;25.13;;
54897;SDS011;40800;52.704;6.398;2022-11-20T08:05:15;28.27;;;24.07;;
54897;SDS011;40800;52.704;6.398;2022-11-20T08:07:42;27.65;;;24.90;;
54897;SDS011;40800;52.704;6.398;2022-11-20T08:12:36;26.25;;;23.45;;
54897;SDS011;40800;52.704;6.398;2022-11-20T08:15:26;27.42;;;24.52;;
54897;SDS011;40800;52.704;6.398;2022-11-20T08:17:52;27.80;;;25.00;;
54897;SDS011;40800;52.704;6.398;2022-11-20T08:20:23;27.20;;;24.33;;
54897;SDS011;40800;52.704;6.398;2022-11-20T08:22:49;26.92;;;24.13;;
54897;SDS011;40800;52.704;6.398;2022-11-20T08:25:14;27.05;;;24.30;;
54897;SDS011;40800;52.704;6.398;2022-11-20T08:27:40;28.23;;;25.33;;
54897;SDS011;40800;52.704;6.398;2022-11-20T08:30:05;27.10;;;24.40;;
54897;SDS011;40800;52.704;6.398;2022-11-20T08:32:31;28.50;;;25.50;;
54897;SDS011;40800;52.704;6.398;2022-11-20T08:34:57;28.27;;;25.27;;
54897;SDS011;40800;52.704;6.398;2022-11-20T08:37:24;27.85;;;24.95;;
54897;SDS011;40800;52.704;6.398;2022-11-20T08:39:49;27.33;;;24.53;;
54897;SDS011;40800;52.704;6.398;2022-11-20T08:42:15;26.73;;;24.02;;
54897;SDS011;40800;52.704;6.398;2022-11-20T08:44:40;27.77;;;24.87;;
54897;SDS011;40800;52.704;6.398;2022-11-20T08:47:08;26.73;;;23.83;;
54897;SDS011;40800;52.704;6.398;2022-11-20T08:49:33;28.50;;;25.50;;
54897;SDS011;40800;52.704;6.398;2022-11-20T08:51:59;27.92;;;25.08;;
54897;SDS011;40800;52.704;6.398;2022-11-20T08:54:24;27.60;;;24.80;;
54897;SDS011;40800;52.704;6.398;2022-11-20T08:56:50;26.20;;;23.70;;
54897;SDS011;40800;52.704;6.398;2022-11-20T08:59:16;25.70;;;22.98;;
54897;SDS011;40800;52.704;6.398;2022-11-20T09:01:41;27.77;;;24.48;;
54897;SDS011;40800;52.704;6.398;2022-11-20T09:04:07;27.00;;;24.17;;
54897;SDS011;40800;52.704;6.398;2022-11-20T09:06:33;28.73;;;24.30;;
54897;SDS011;40800;52.704;6.398;2022-11-20T09:08:58;26.60;;;23.75;;
54897;SDS011;40800;52.704;6.398;2022-11-20T09:11:24;26.50;;;23.75;;
54897;SDS011;40800;52.704;6.398;2022-11-20T09:13:50;29.05;;;25.70;;
54897;SDS011;40800;52.704;6.398;2022-11-20T09:16:15;27.70;;;24.90;;
54897;SDS011;40800;52.704;6.398;2022-11-20T09:18:41;27.15;;;24.33;;
54897;SDS011;40800;52.704;6.398;2022-11-20T09:21:09;28.70;;;25.90;;
54897;SDS011;40800;52.704;6.398;2022-11-20T09:23:36;30.52;;;26.17;;
54897;SDS011;40800;52.704;6.398;2022-11-20T09:26:06;27.48;;;24.75;;
54897;SDS011;40800;52.704;6.398;2022-11-20T09:28:35;28.17;;;25.38;;
54897;SDS011;40800;52.704;6.398;2022-11-20T09:31:00;28.23;;;25.23;;
54897;SDS011;40800;52.704;6.398;2022-11-20T09:33:31;27.70;;;24.92;;
54897;SDS011;40800;52.704;6.398;2022-11-20T09:35:56;26.52;;;23.92;;
54897;SDS011;40800;52.704;6.398;2022-11-20T09:38:22;27.40;;;24.67;;
54897;SDS011;40800;52.704;6.398;2022-11-20T09:41:06;27.73;;;24.80;;
54897;SDS011;40800;52.704;6.398;2022-11-20T09:43:49;27.65;;;24.77;;
54897;SDS011;40800;52.704;6.398;2022-11-20T09:46:36;25.33;;;22.75;;
54897;SDS011;40800;52.704;6.398;2022-11-20T09:51:59;26.15;;;23.55;;
54897;SDS011;40800;52.704;6.398;2022-11-20T09:54:31;25.88;;;23.23;;
54897;SDS011;40800;52.704;6.398;2022-11-20T09:57:01;25.70;;;23.00;;
54897;SDS011;40800;52.704;6.398;2022-11-20T09:59:42;23.83;;;21.42;;
54897;SDS011;40800;52.704;6.398;2022-11-20T10:02:35;23.33;;;20.92;;
54897;SDS011;40800;52.704;6.398;2022-11-20T10:05:12;23.75;;;21.45;;
54897;SDS011;40800;52.704;6.398;2022-11-20T10:10:45;21.45;;;19.20;;
54897;SDS011;40800;52.704;6.398;2022-11-20T10:16:09;20.40;;;18.45;;
54897;SDS011;40800;52.704;6.398;2022-11-20T10:21:22;18.17;;;16.35;;
54897;SDS011;40800;52.704;6.398;2022-11-20T10:24:07;18.90;;;16.92;;
54897;SDS011;40800;52.704;6.398;2022-11-20T10:26:55;18.67;;;16.77;;
54897;SDS011;40800;52.704;6.398;2022-11-20T10:29:53;18.67;;;16.70;;
54897;SDS011;40800;52.704;6.398;2022-11-20T10:32:28;18.50;;;16.60;;
54897;SDS011;40800;52.704;6.398;2022-11-20T10:35:05;18.13;;;16.33;;
54897;SDS011;40800;52.704;6.398;2022-11-20T10:37:40;17.85;;;15.90;;
54897;SDS011;40800;52.704;6.398;2022-11-20T10:40:17;17.83;;;16.02;;
54897;SDS011;40800;52.704;6.398;2022-11-20T10:42:56;18.48;;;16.63;;
54897;SDS011;40800;52.704;6.398;2022-11-20T10:47:52;18.52;;;16.50;;
54897;SDS011;40800;52.704;6.398;2022-11-20T10:50:25;17.33;;;15.45;;
54897;SDS011;40800;52.704;6.398;2022-11-20T10:53:01;18.55;;;16.67;;
54897;SDS011;40800;52.704;6.398;2022-11-20T10:55:49;17.15;;;15.35;;
54897;SDS011;40800;52.704;6.398;2022-11-20T10:58:35;16.20;;;14.10;;
54897;SDS011;40800;52.704;6.398;2022-11-20T11:01:18;17.30;;;15.50;;
54897;SDS011;40800;52.704;6.398;2022-11-20T11:03:52;17.27;;;15.48;;
54897;SDS011;40800;52.704;6.398;2022-11-20T11:06:29;14.35;;;12.68;;
54897;SDS011;40800;52.704;6.398;2022-11-20T11:09:02;15.40;;;12.55;;
54897;SDS011;40800;52.704;6.398;2022-11-20T11:11:35;14.13;;;12.35;;
54897;SDS011;40800;52.704;6.398;2022-11-20T11:14:06;14.38;;;12.30;;
54897;SDS011;40800;52.704;6.398;2022-11-20T11:16:51;15.88;;;12.57;;
54897;SDS011;40800;52.704;6.398;2022-11-20T11:19:22;15.50;;;12.90;;
54897;SDS011;40800;52.704;6.398;2022-11-20T11:21:49;16.37;;;13.53;;
54897;SDS011;40800;52.704;6.398;2022-11-20T11:24:23;14.02;;;12.48;;
54897;SDS011;40800;52.704;6.398;2022-11-20T11:27:00;13.80;;;11.68;;
54897;SDS011;40800;52.704;6.398;2022-11-20T11:29:29;14.15;;;11.93;;
54897;SDS011;40800;52.704;6.398;2022-11-20T11:34:40;15.48;;;12.70;;
54897;SDS011;40800;52.704;6.398;2022-11-20T11:37:13;16.00;;;12.73;;
54897;SDS011;40800;52.704;6.398;2022-11-20T11:39:42;15.13;;;12.70;;
54897;SDS011;40800;52.704;6.398;2022-11-20T11:42:11;17.42;;;13.73;;
54897;SDS011;40800;52.704;6.398;2022-11-20T11:44:43;14.98;;;12.98;;
54897;SDS011;40800;52.704;6.398;2022-11-20T11:47:30;16.92;;;13.07;;
54897;SDS011;40800;52.704;6.398;2022-11-20T11:52:33;14.70;;;12.75;;
54897;SDS011;40800;52.704;6.398;2022-11-20T11:55:10;17.33;;;12.70;;
54897;SDS011;40800;52.704;6.398;2022-11-20T11:57:54;17.33;;;13.38;;
54897;SDS011;40800;52.704;6.398;2022-11-20T12:00:25;15.23;;;13.00;;
54897;SDS011;40800;52.704;6.398;2022-11-20T12:02:57;15.70;;;13.80;;
54897;SDS011;40800;52.704;6.398;2022-11-20T12:05:36;15.35;;;12.77;;
54897;SDS011;40800;52.704;6.398;2022-11-20T12:13:09;16.25;;;12.93;;
54897;SDS011;40800;52.704;6.398;2022-11-20T12:15:55;16.40;;;13.40;;
54897;SDS011;40800;52.704;6.398;2022-11-20T12:18:21;14.57;;;12.82;;
54897;SDS011;40800;52.704;6.398;2022-11-20T12:20:52;16.35;;;13.57;;
54897;SDS011;40800;52.704;6.398;2022-11-20T12:26:42;16.88;;;13.27;;
54897;SDS011;40800;52.704;6.398;2022-11-20T12:32:24;14.48;;;12.60;;
54897;SDS011;40800;52.704;6.398;2022-11-20T12:35:23;16.42;;;13.63;;
54897;SDS011;40800;52.704;6.398;2022-11-20T12:40:54;18.52;;;14.57;;
54897;SDS011;40800;52.704;6.398;2022-11-20T12:44:12;17.33;;;13.90;;
54897;SDS011;40800;52.704;6.398;2022-11-20T12:47:07;16.98;;;13.10;;
54897;SDS011;40800;52.704;6.398;2022-11-20T12:50:00;16.60;;;14.13;;
54897;SDS011;40800;52.704;6.398;2022-11-20T12:52:46;16.70;;;14.23;;
54897;SDS011;40800;52.704;6.398;2022-11-20T12:58:08;21.48;;;14.43;;
54897;SDS011;40800;52.704;6.398;2022-11-20T13:01:00;16.48;;;14.52;;
54897;SDS011;40800;52.704;6.398;2022-11-20T13:07:04;23.10;;;15.18;;
54897;SDS011;40800;52.704;6.398;2022-11-20T13:09:32;17.83;;;14.90;;
54897;SDS011;40800;52.704;6.398;2022-11-20T13:12:03;18.00;;;14.25;;
54897;SDS011;40800;52.704;6.398;2022-11-20T13:17:29;17.58;;;13.90;;
54897;SDS011;40800;52.704;6.398;2022-11-20T13:19:59;16.75;;;14.02;;
54897;SDS011;40800;52.704;6.398;2022-11-20T13:25:10;17.40;;;15.07;;
54897;SDS011;40800;52.704;6.398;2022-11-20T13:27:51;16.55;;;14.45;;
54897;SDS011;40800;52.704;6.398;2022-11-20T13:30:18;17.40;;;14.35;;
54897;SDS011;40800;52.704;6.398;2022-11-20T13:32:52;16.73;;;14.23;;
54897;SDS011;40800;52.704;6.398;2022-11-20T13:35:28;18.38;;;14.50;;
54897;SDS011;40800;52.704;6.398;2022-11-20T13:38:05;15.73;;;13.43;;
54897;SDS011;40800;52.704;6.398;2022-11-20T13:40:37;18.23;;;14.50;;
54897;SDS011;40800;52.704;6.398;2022-11-20T13:48:23;16.10;;;14.13;;
54897;SDS011;40800;52.704;6.398;2022-11-20T13:54:01;15.68;;;13.93;;
54897;SDS011;40800;52.704;6.398;2022-11-20T14:02:27;15.98;;;13.45;;
54897;SDS011;40800;52.704;6.398;2022-11-20T14:04:56;18.77;;;14.93;;
54897;SDS011;40800;52.704;6.398;2022-11-20T14:07:25;18.58;;;14.32;;
54897;SDS011;40800;52.704;6.398;2022-11-20T14:09:57;17.30;;;14.75;;
54897;SDS011;40800;52.704;6.398;2022-11-20T14:12:27;17.33;;;14.65;;
54897;SDS011;40800;52.704;6.398;2022-11-20T14:14:54;17.02;;;14.18;;
54897;SDS011;40800;52.704;6.398;2022-11-20T14:17:22;17.63;;;15.00;;
54897;SDS011;40800;52.704;6.398;2022-11-20T14:19:50;16.85;;;14.27;;
54897;SDS011;40800;52.704;6.398;2022-11-20T14:22:35;17.42;;;14.90;;
54897;SDS011;40800;52.704;6.398;2022-11-20T14:27:42;16.80;;;14.20;;
54897;SDS011;40800;52.704;6.398;2022-11-20T14:30:13;16.35;;;14.35;;
54897;SDS011;40800;52.704;6.398;2022-11-20T14:32:42;17.63;;;14.30;;
54897;SDS011;40800;52.704;6.398;2022-11-20T14:35:09;18.02;;;15.45;;
54897;SDS011;40800;52.704;6.398;2022-11-20T14:37:43;18.75;;;14.90;;
54897;SDS011;40800;52.704;6.398;2022-11-20T14:40:43;17.77;;;15.18;;
54897;SDS011;40800;52.704;6.398;2022-11-20T14:43:02;20.45;;;15.20;;
54897;SDS011;40800;52.704;6.398;2022-11-20T14:45:51;18.40;;;14.90;;
54897;SDS011;40800;52.704;6.398;2022-11-20T14:48:45;20.65;;;15.40;;
54897;SDS011;40800;52.704;6.398;2022-11-20T14:51:27;19.25;;;15.77;;
54897;SDS011;40800;52.704;6.398;2022-11-20T14:54:18;51.83;;;17.02;;
54897;SDS011;40800;52.704;6.398;2022-11-20T14:56:53;55.10;;;17.42;;
54897;SDS011;40800;52.704;6.398;2022-11-20T14:59:24;49.78;;;16.33;;
54897;SDS011;40800;52.704;6.398;2022-11-20T15:04:21;23.00;;;16.55;;
54897;SDS011;40800;52.704;6.398;2022-11-20T15:06:51;18.63;;;15.35;;
54897;SDS011;40800;52.704;6.398;2022-11-20T15:09:18;18.50;;;15.75;;
54897;SDS011;40800;52.704;6.398;2022-11-20T15:12:00;22.25;;;16.55;;
54897;SDS011;40800;52.704;6.398;2022-11-20T15:14:28;19.35;;;16.40;;
54897;SDS011;40800;52.704;6.398;2022-11-20T15:16:55;18.40;;;15.55;;
54897;SDS011;40800;52.704;6.398;2022-11-20T15:19:24;18.65;;;15.98;;
54897;SDS011;40800;52.704;6.398;2022-11-20T15:21:51;17.98;;;15.43;;
54897;SDS011;40800;52.704;6.398;2022-11-20T15:24:17;19.42;;;16.10;;
54897;SDS011;40800;52.704;6.398;2022-11-20T15:26:43;18.85;;;15.90;;
54897;SDS011;40800;52.704;6.398;2022-11-20T15:29:12;18.58;;;16.05;;
54897;SDS011;40800;52.704;6.398;2022-11-20T15:31:43;20.45;;;15.93;;
54897;SDS011;40800;52.704;6.398;2022-11-20T15:34:13;20.92;;;16.55;;
54897;SDS011;40800;52.704;6.398;2022-11-20T15:36:40;24.40;;;17.02;;
54897;SDS011;40800;52.704;6.398;2022-11-20T15:39:06;21.45;;;16.73;;
54897;SDS011;40800;52.704;6.398;2022-11-20T15:41:36;19.58;;;16.90;;
54897;SDS011;40800;52.704;6.398;2022-11-20T15:44:03;23.05;;;17.27;;
54897;SDS011;40800;52.704;6.398;2022-11-20T15:46:30;18.85;;;16.83;;
54897;SDS011;40800;52.704;6.398;2022-11-20T15:49:02;18.67;;;16.67;;
54897;SDS011;40800;52.704;6.398;2022-11-20T15:51:31;20.33;;;16.98;;
54897;SDS011;40800;52.704;6.398;2022-11-20T15:54:12;20.70;;;17.52;;